createdAt,value
2023-03-27T00:01:25.801Z,95757.47
2023-03-27T00:03:53.625Z,95751.59
2023-03-27T00:06:22.085Z,95751.25
2023-03-27T00:08:51.769Z,95745.13
2023-03-27T00:11:22.251Z,95747.47
2023-03-27T00:13:51.391Z,95747.75
2023-03-27T00:16:21.668Z,95747.97
2023-03-27T00:18:49.142Z,95744.69
2023-03-27T00:21:16.824Z,95750.47
2023-03-27T00:23:44.288Z,95747.84
2023-03-27T00:26:12.116Z,95748.47
2023-03-27T00:28:39.884Z,95741.72
2023-03-27T00:31:12.473Z,95744.19
2023-03-27T00:33:40.149Z,95736.03
2023-03-27T00:36:08.904Z,95734.47
2023-03-27T00:38:36.951Z,95727.25
2023-03-27T00:41:05.064Z,95727.25
2023-03-27T00:43:35.744Z,95714.34
2023-03-27T00:46:33.146Z,95718.28
2023-03-27T00:49:05.921Z,95713.25
2023-03-27T00:51:35.554Z,95716.94
2023-03-27T00:54:04.646Z,95720.06
2023-03-27T00:56:33.815Z,95702.63
2023-03-27T00:59:06.323Z,95699.00
2023-03-27T01:01:33.648Z,95696.56
2023-03-27T01:04:04.466Z,95691.28
2023-03-27T01:06:32.598Z,95687.59
2023-03-27T01:09:00.019Z,95678.63
2023-03-27T01:11:41.314Z,95675.38
2023-03-27T01:14:30.667Z,95681.09
2023-03-27T01:17:06.628Z,95682.06
2023-03-27T01:19:53.485Z,95672.06
2023-03-27T01:22:55.252Z,95673.31
2023-03-27T01:26:00.218Z,95670.28
2023-03-27T01:28:37.267Z,95668.09
2023-03-27T01:31:26.075Z,95667.88
2023-03-27T01:34:30.184Z,95664.56
2023-03-27T01:37:39.125Z,95661.38
2023-03-27T01:40:44.915Z,95648.06
2023-03-27T01:43:24.738Z,95638.91
2023-03-27T01:46:03.956Z,95635.47
2023-03-27T01:48:45.752Z,95647.03
2023-03-27T01:51:40.022Z,95642.19
2023-03-27T01:54:29.023Z,95635.72
2023-03-27T01:57:10.274Z,95639.44
2023-03-27T01:59:43.082Z,95637.66
2023-03-27T02:02:19.728Z,95634.59
2023-03-27T02:05:04.635Z,95650.94
2023-03-27T02:07:40.244Z,95643.78
2023-03-27T02:10:14.353Z,95647.72
2023-03-27T02:12:50.357Z,95643.88
2023-03-27T02:15:26.306Z,95641.53
2023-03-27T02:18:08.077Z,95649.59
2023-03-27T02:20:38.402Z,95640.50
2023-03-27T02:23:07.809Z,95645.19
2023-03-27T02:25:39.749Z,95653.81
2023-03-27T02:28:29.282Z,95656.28
2023-03-27T02:31:38.555Z,95663.69
2023-03-27T02:34:38.381Z,95661.53
2023-03-27T02:37:48.839Z,95660.78
2023-03-27T02:40:28.556Z,95667.97
2023-03-27T02:43:37.729Z,95667.97
2023-03-27T02:46:26.846Z,95657.16
2023-03-27T02:48:57.509Z,95664.09
2023-03-27T02:51:41.138Z,95662.72
2023-03-27T02:54:33.451Z,95655.31
2023-03-27T02:57:12.599Z,95654.44
2023-03-27T03:00:13.169Z,95655.03
2023-03-27T03:02:45.950Z,95656.28
2023-03-27T03:05:22.237Z,95649.69
2023-03-27T03:07:50.366Z,95658.06
2023-03-27T03:10:17.743Z,95656.22
2023-03-27T03:12:45.045Z,95656.97
2023-03-27T03:15:12.672Z,95659.44
2023-03-27T03:17:40.150Z,95654.94
2023-03-27T03:20:09.927Z,95656.88
2023-03-27T03:22:40.075Z,95659.91
2023-03-27T03:25:08.961Z,95662.94
2023-03-27T03:27:36.956Z,95664.69
2023-03-27T03:30:10.702Z,95667.22
2023-03-27T03:32:51.017Z,95662.53
2023-03-27T03:35:18.409Z,95658.09
2023-03-27T03:37:50.676Z,95661.44
2023-03-27T03:40:20.474Z,95662.72
2023-03-27T03:42:52.979Z,95662.56
2023-03-27T03:45:24.923Z,95664.16
2023-03-27T03:47:52.256Z,95656.19
2023-03-27T03:50:19.734Z,95661.28
2023-03-27T03:52:47.310Z,95658.31
2023-03-27T03:55:15.958Z,95662.66
2023-03-27T03:57:50.284Z,95656.19
2023-03-27T04:00:25.934Z,95660.94
2023-03-27T04:02:57.129Z,95653.50
2023-03-27T04:05:24.861Z,95652.88
2023-03-27T04:07:54.428Z,95652.53
2023-03-27T04:10:41.555Z,95651.03
2023-03-27T04:13:44.246Z,95654.31
2023-03-27T04:16:22.780Z,95651.00
2023-03-27T04:18:54.522Z,95655.50
2023-03-27T04:21:26.590Z,95650.41
2023-03-27T04:23:54.276Z,95649.09
2023-03-27T04:26:30.118Z,95655.31
2023-03-27T04:29:34.272Z,95650.00
2023-03-27T04:32:02.263Z,95652.56
2023-03-27T04:34:42.195Z,95645.66
2023-03-27T04:37:13.513Z,95648.00
2023-03-27T04:39:48.238Z,95653.31
2023-03-27T04:42:15.928Z,95644.41
2023-03-27T04:44:46.163Z,95647.53
2023-03-27T04:47:14.360Z,95649.50
2023-03-27T04:49:43.861Z,95650.81
2023-03-27T04:52:19.554Z,95647.44
2023-03-27T04:54:47.118Z,95661.22
2023-03-27T04:57:17.052Z,95657.22
2023-03-27T04:59:47.090Z,95660.22
2023-03-27T05:02:56.269Z,95664.81
2023-03-27T05:05:51.014Z,95666.56
2023-03-27T05:08:18.865Z,95665.47
2023-03-27T05:10:46.965Z,95668.66
2023-03-27T05:13:14.578Z,95665.56
2023-03-27T05:15:42.075Z,95668.19
2023-03-27T05:18:12.761Z,95675.84
2023-03-27T05:20:40.099Z,95677.59
2023-03-27T05:23:10.887Z,95671.59
2023-03-27T05:25:39.494Z,95677.38
2023-03-27T05:28:12.045Z,95677.78
2023-03-27T05:30:39.373Z,95674.47
2023-03-27T05:33:17.604Z,95678.28
2023-03-27T05:35:48.716Z,95678.34
2023-03-27T05:38:17.354Z,95674.16
2023-03-27T05:40:52.357Z,95688.41
2023-03-27T05:43:19.913Z,95692.66
2023-03-27T05:45:47.253Z,95695.91
2023-03-27T05:48:14.652Z,95693.28
2023-03-27T05:50:42.695Z,95702.03
2023-03-27T05:53:20.903Z,95702.06
2023-03-27T05:56:15.615Z,95706.34
2023-03-27T05:58:52.704Z,95713.16
2023-03-27T06:01:23.662Z,95712.50
2023-03-27T06:03:55.999Z,95709.84
2023-03-27T06:06:36.283Z,95713.16
2023-03-27T06:09:04.037Z,95722.38
2023-03-27T06:11:32.314Z,95727.75
2023-03-27T06:13:59.565Z,95734.78
2023-03-27T06:16:41.679Z,95728.50
2023-03-27T06:19:29.743Z,95730.53
2023-03-27T06:21:57.071Z,95732.75
2023-03-27T06:24:24.247Z,95733.19
2023-03-27T06:26:51.677Z,95746.28
2023-03-27T06:29:20.132Z,95753.97
2023-03-27T06:31:51.066Z,95748.34
2023-03-27T06:34:24.464Z,95752.38
2023-03-27T06:37:00.020Z,95753.75
2023-03-27T06:39:28.900Z,95751.78
2023-03-27T06:41:57.856Z,95751.81
2023-03-27T06:44:25.203Z,95762.28
2023-03-27T06:47:10.588Z,95767.41
2023-03-27T06:49:58.062Z,95768.50
2023-03-27T06:52:25.404Z,95771.91
2023-03-27T06:54:57.542Z,95763.03
2023-03-27T06:57:25.050Z,95778.25
2023-03-27T06:59:56.716Z,95779.72
2023-03-27T07:02:41.473Z,95778.75
2023-03-27T07:05:40.906Z,95776.31
2023-03-27T07:08:22.307Z,95778.38
2023-03-27T07:11:10.114Z,95785.00
2023-03-27T07:13:42.611Z,95789.28
2023-03-27T07:16:16.354Z,95795.25
2023-03-27T07:18:43.593Z,95792.72
2023-03-27T07:21:12.929Z,95794.06
2023-03-27T07:23:41.000Z,95799.25
2023-03-27T07:26:10.689Z,95802.25
2023-03-27T07:29:16.399Z,95805.88
2023-03-27T07:34:27.192Z,95804.13
2023-03-27T07:37:24.831Z,95814.94
2023-03-27T07:40:13.434Z,95817.88
2023-03-27T07:42:45.539Z,95812.19
2023-03-27T07:45:21.505Z,95824.72
2023-03-27T07:47:51.601Z,95826.16
2023-03-27T07:50:21.833Z,95823.81
2023-03-27T07:52:49.980Z,95825.88
2023-03-27T07:55:19.749Z,95827.03
2023-03-27T07:58:02.260Z,95830.28
2023-03-27T08:00:35.535Z,95831.03
2023-03-27T08:03:14.507Z,95837.94
2023-03-27T08:05:57.785Z,95835.34
2023-03-27T08:08:28.436Z,95840.81
2023-03-27T08:11:00.138Z,95840.25
2023-03-27T08:13:33.145Z,95841.97
2023-03-27T08:16:11.442Z,95846.97
2023-03-27T08:18:39.135Z,95852.91
2023-03-27T08:21:09.693Z,95855.25
2023-03-27T08:23:39.895Z,95857.25
2023-03-27T08:26:43.034Z,95860.25
2023-03-27T08:29:13.212Z,95859.09
2023-03-27T08:31:43.734Z,95866.31
2023-03-27T08:34:11.470Z,95885.66
2023-03-27T08:36:52.620Z,95904.25
2023-03-27T08:39:22.868Z,95905.34
2023-03-27T08:42:03.834Z,95911.75
2023-03-27T08:44:38.590Z,95920.66
2023-03-27T08:47:31.975Z,95920.59
2023-03-27T08:50:29.829Z,95918.47
2023-03-27T08:53:35.510Z,95922.53
2023-03-27T08:56:05.244Z,95932.88
2023-03-27T08:58:42.766Z,95933.91
2023-03-27T09:01:26.522Z,95944.88
2023-03-27T09:04:05.193Z,95950.41
2023-03-27T09:07:18.377Z,95954.25
2023-03-27T09:10:25.069Z,95965.53
2023-03-27T09:13:16.745Z,95961.97
2023-03-27T09:16:11.099Z,95976.53
2023-03-27T09:18:53.422Z,95972.19
2023-03-27T09:21:38.291Z,95987.91
2023-03-27T09:24:30.292Z,95993.97
2023-03-27T09:27:33.940Z,95981.47
2023-03-27T09:30:27.456Z,95998.16
2023-03-27T09:33:05.152Z,96000.06
2023-03-27T09:35:35.697Z,96004.53
2023-03-27T09:38:37.251Z,96012.50
2023-03-27T09:41:29.703Z,96009.72
2023-03-27T09:44:13.383Z,96013.78
2023-03-27T09:46:49.815Z,96009.47
2023-03-27T09:49:19.829Z,96012.16
2023-03-27T09:51:58.337Z,96032.78
2023-03-27T09:54:57.929Z,96048.03
2023-03-27T09:57:40.469Z,96062.28
2023-03-27T10:00:31.996Z,96065.63
2023-03-27T10:03:16.608Z,96061.06
2023-03-27T10:05:47.180Z,96078.13
2023-03-27T10:08:45.571Z,96073.84
2023-03-27T10:11:31.221Z,96089.09
2023-03-27T10:14:16.925Z,96085.06
2023-03-27T10:16:47.725Z,96098.00
2023-03-27T10:19:38.583Z,96102.75
2023-03-27T10:22:34.388Z,96109.50
2023-03-27T10:25:06.934Z,96098.09
2023-03-27T10:27:54.372Z,96124.53
2023-03-27T10:30:38.275Z,96121.03
2023-03-27T10:33:37.870Z,96120.56
2023-03-27T10:36:13.241Z,96148.97
2023-03-27T10:38:42.608Z,96142.00
2023-03-27T10:41:31.638Z,96136.66
2023-03-27T10:44:00.989Z,96134.81
2023-03-27T10:46:30.670Z,96155.53
2023-03-27T10:49:31.740Z,96148.88
2023-03-27T10:52:13.750Z,96150.84
2023-03-27T10:55:23.097Z,96158.38
2023-03-27T10:57:57.859Z,96177.03
2023-03-27T11:00:50.624Z,96185.97
2023-03-27T11:03:45.640Z,96198.56
2023-03-27T11:06:17.577Z,96206.75
2023-03-27T11:09:01.959Z,96203.47
2023-03-27T11:11:51.516Z,96229.28
2023-03-27T11:14:44.509Z,96245.50
2023-03-27T11:17:21.265Z,96263.16
2023-03-27T11:20:44.444Z,96279.03
2023-03-27T11:23:39.910Z,96295.38
2023-03-27T11:26:36.741Z,96299.31
2023-03-27T11:29:23.126Z,96322.31
2023-03-27T11:32:01.608Z,96328.16
2023-03-27T11:34:53.897Z,96350.06
2023-03-27T11:37:45.643Z,96360.25
2023-03-27T11:40:20.393Z,96361.03
2023-03-27T11:42:51.613Z,96376.59
2023-03-27T11:45:24.901Z,96377.84
2023-03-27T11:48:33.061Z,96385.50
2023-03-27T11:51:48.431Z,96382.13
2023-03-27T11:54:31.690Z,96390.75
2023-03-27T11:57:27.457Z,96401.03
2023-03-27T12:00:11.735Z,96415.19
2023-03-27T12:03:11.998Z,96420.94
2023-03-27T12:06:30.542Z,96426.78
2023-03-27T12:09:10.080Z,96436.38
2023-03-27T12:12:50.728Z,96438.75
2023-03-27T12:15:49.148Z,96458.81
2023-03-27T12:19:02.172Z,96454.41
2023-03-27T12:21:46.602Z,96454.16
2023-03-27T12:24:37.873Z,96463.06
2023-03-27T12:28:06.507Z,96469.63
2023-03-27T12:31:31.865Z,96472.00
2023-03-27T12:34:33.660Z,96474.84
2023-03-27T12:37:01.932Z,96482.66
2023-03-27T12:39:29.162Z,96475.94
2023-03-27T12:42:15.095Z,96487.91
2023-03-27T12:45:18.275Z,96489.06
2023-03-27T12:48:10.147Z,96489.03
2023-03-27T12:50:51.625Z,96474.66
2023-03-27T12:53:47.921Z,96488.53
2023-03-27T12:56:17.897Z,96491.13
2023-03-27T12:58:52.724Z,96494.28
2023-03-27T13:05:08.597Z,96493.31
2023-03-27T13:07:58.860Z,96505.75
2023-03-27T13:11:03.929Z,96506.41
2023-03-27T13:14:22.249Z,96506.97
2023-03-27T13:17:23.241Z,96512.19
2023-03-27T13:20:22.445Z,96518.03
2023-03-27T13:23:10.418Z,96520.66
2023-03-27T13:26:15.790Z,96532.66
2023-03-27T13:28:54.350Z,96523.88
2023-03-27T13:31:51.238Z,96547.13
2023-03-27T13:34:40.908Z,96544.28
2023-03-27T13:37:14.139Z,96549.91
2023-03-27T13:40:07.888Z,96562.81
2023-03-27T13:42:43.778Z,96569.28
2023-03-27T13:45:20.034Z,96578.63
2023-03-27T13:48:25.683Z,96577.03
2023-03-27T13:51:09.352Z,96592.06
2023-03-27T13:53:51.178Z,96590.81
2023-03-27T13:57:10.952Z,96600.28
2023-03-27T14:00:15.595Z,96600.59
2023-03-27T14:03:11.059Z,96608.94
2023-03-27T14:06:11.931Z,96610.00
2023-03-27T14:09:38.069Z,96609.09
2023-03-27T14:12:35.912Z,96604.03
2023-03-27T14:16:06.344Z,96615.75
2023-03-27T14:19:16.329Z,96616.66
2023-03-27T14:22:20.128Z,96622.22
2023-03-27T14:25:05.509Z,96624.50
2023-03-27T14:27:49.427Z,96631.59
2023-03-27T14:30:23.777Z,96635.72
2023-03-27T14:33:20.363Z,96634.78
2023-03-27T14:36:04.032Z,96644.78
2023-03-27T14:38:36.062Z,96645.22
2023-03-27T14:41:17.805Z,96659.41
2023-03-27T14:43:52.369Z,96656.38
2023-03-27T14:46:24.020Z,96664.44
2023-03-27T14:48:58.145Z,96678.88
2023-03-27T14:51:37.606Z,96667.69
2023-03-27T14:54:41.709Z,96680.50
2023-03-27T14:57:17.891Z,96693.84
2023-03-27T14:59:57.707Z,96695.31
2023-03-27T15:02:32.004Z,96705.19
2023-03-27T15:05:09.798Z,96712.09
2023-03-27T15:07:38.858Z,96708.72
2023-03-27T15:10:29.092Z,96706.19
2023-03-27T15:13:11.342Z,96718.88
2023-03-27T15:15:57.153Z,96721.13
2023-03-27T15:18:38.954Z,96730.56
2023-03-27T15:21:34.750Z,96726.88
2023-03-27T15:24:27.570Z,96730.44
2023-03-27T15:26:56.080Z,96731.72
2023-03-27T15:29:43.945Z,96723.63
2023-03-27T15:32:15.064Z,96730.28
2023-03-27T15:34:48.319Z,96732.91
2023-03-27T15:37:28.756Z,96730.97
2023-03-27T15:40:37.738Z,96744.50
2023-03-27T15:43:27.975Z,96744.50
2023-03-27T15:46:07.665Z,96749.28
2023-03-27T15:48:44.089Z,96761.81
2023-03-27T15:51:30.452Z,96754.91
2023-03-27T15:53:57.986Z,96753.00
2023-03-27T15:56:36.386Z,96754.66
2023-03-27T15:59:10.372Z,96759.63
2023-03-27T16:01:41.196Z,96743.41
2023-03-27T16:04:19.767Z,96755.22
2023-03-27T16:07:05.511Z,96754.13
2023-03-27T16:10:05.421Z,96759.88
2023-03-27T16:12:50.284Z,96766.94
2023-03-27T16:15:36.589Z,96766.56
2023-03-27T16:18:24.692Z,96775.56
2023-03-27T16:20:52.294Z,96776.75
2023-03-27T16:23:19.515Z,96775.25
2023-03-27T16:25:46.797Z,96783.25
2023-03-27T16:28:14.694Z,96793.78
2023-03-27T16:30:42.379Z,96793.16
2023-03-27T16:33:20.631Z,96791.81
2023-03-27T16:35:48.106Z,96796.44
2023-03-27T16:38:16.653Z,96804.22
2023-03-27T16:40:45.038Z,96805.72
2023-03-27T16:43:12.428Z,96805.69
2023-03-27T16:45:39.899Z,96810.69
2023-03-27T16:48:08.755Z,96810.09
2023-03-27T16:50:36.628Z,96811.94
2023-03-27T16:53:04.282Z,96816.44
2023-03-27T16:55:31.516Z,96823.56
2023-03-27T16:57:58.681Z,96824.75
2023-03-27T17:00:27.131Z,96832.44
2023-03-27T17:02:54.788Z,96827.88
2023-03-27T17:05:22.083Z,96836.34
2023-03-27T17:07:49.452Z,96844.19
2023-03-27T17:10:17.015Z,96844.72
2023-03-27T17:12:44.433Z,96855.44
2023-03-27T17:15:11.797Z,96846.69
2023-03-27T17:17:39.226Z,96850.31
2023-03-27T17:20:07.949Z,96855.31
2023-03-27T17:22:36.184Z,96857.28
2023-03-27T17:25:06.188Z,96863.34
2023-03-27T17:27:34.064Z,96867.28
2023-03-27T17:30:01.421Z,96881.31
2023-03-27T17:32:28.810Z,96884.13
2023-03-27T17:34:56.411Z,96879.13
2023-03-27T17:37:25.959Z,96889.34
2023-03-27T17:39:53.389Z,96895.59
2023-03-27T17:42:20.983Z,96898.31
2023-03-27T17:44:48.290Z,96891.56
2023-03-27T17:47:15.626Z,96901.09
2023-03-27T17:49:43.436Z,96900.28
2023-03-27T17:52:12.293Z,96912.22
2023-03-27T17:54:40.335Z,96907.78
2023-03-27T17:57:07.891Z,96898.47
2023-03-27T17:59:36.704Z,96909.72
2023-03-27T18:02:04.278Z,96911.09
2023-03-27T18:04:33.176Z,96919.56
2023-03-27T18:07:00.489Z,96923.22
2023-03-27T18:09:27.806Z,96923.44
2023-03-27T18:11:55.143Z,96924.69
2023-03-27T18:14:22.593Z,96931.63
2023-03-27T18:16:49.954Z,96932.16
2023-03-27T18:19:17.332Z,96931.25
2023-03-27T18:21:45.028Z,96939.56
2023-03-27T18:24:12.500Z,96945.44
2023-03-27T18:26:40.206Z,96945.31
2023-03-27T18:29:07.408Z,96941.63
2023-03-27T18:31:34.784Z,96945.25
2023-03-27T18:34:02.764Z,96947.59
2023-03-27T18:36:30.108Z,96950.50
2023-03-27T18:38:58.479Z,96958.75
2023-03-27T18:41:25.857Z,96961.97
2023-03-27T18:43:53.309Z,96964.78
2023-03-27T18:46:20.758Z,96961.69
2023-03-27T18:48:49.472Z,96970.22
2023-03-27T18:51:20.354Z,96957.78
2023-03-27T18:53:49.516Z,96965.91
2023-03-27T18:56:17.277Z,96963.44
2023-03-27T18:58:44.666Z,96968.78
2023-03-27T19:01:12.430Z,96971.47
2023-03-27T19:03:40.639Z,96974.22
2023-03-27T19:06:10.262Z,96975.91
2023-03-27T19:08:42.081Z,96976.56
2023-03-27T19:11:11.132Z,96969.84
2023-03-27T19:14:13.553Z,96978.94
2023-03-27T19:16:53.382Z,96978.47
2023-03-27T19:19:39.568Z,96984.97
2023-03-27T19:22:34.452Z,96981.19
2023-03-27T19:25:09.044Z,96978.94
2023-03-27T19:27:38.381Z,96981.69
2023-03-27T19:30:08.741Z,96981.88
2023-03-27T19:32:36.077Z,96976.06
2023-03-27T19:35:03.606Z,96978.50
2023-03-27T19:37:31.662Z,96971.38
2023-03-27T19:39:59.720Z,96983.47
2023-03-27T19:42:28.654Z,96983.78
2023-03-27T19:44:56.877Z,96990.81
2023-03-27T19:47:24.118Z,96981.53
2023-03-27T19:49:51.313Z,96992.25
2023-03-27T19:52:33.423Z,96985.44
2023-03-27T19:55:00.863Z,96988.38
2023-03-27T19:57:28.384Z,96987.59
2023-03-27T19:59:55.993Z,96994.31
2023-03-27T20:02:23.393Z,96997.38
2023-03-27T20:04:51.222Z,96996.81
2023-03-27T20:07:18.617Z,96993.88
2023-03-27T20:09:46.207Z,96996.22
2023-03-27T20:12:13.516Z,96993.72
2023-03-27T20:14:40.911Z,96990.84
2023-03-27T20:17:21.346Z,97001.59
2023-03-27T20:19:55.644Z,96997.59
2023-03-27T20:22:23.039Z,97000.16
2023-03-27T20:24:50.484Z,96998.22
2023-03-27T20:27:19.975Z,96997.53
2023-03-27T20:29:48.238Z,97004.13
2023-03-27T20:32:15.750Z,97002.97
2023-03-27T20:34:46.374Z,97001.94
2023-03-27T20:37:14.045Z,96998.44
2023-03-27T20:39:49.911Z,96998.84
2023-03-27T20:42:23.198Z,96993.06
2023-03-27T20:45:00.000Z,96988.28
2023-03-27T20:47:27.347Z,96992.22
2023-03-27T20:49:59.006Z,97004.19
2023-03-27T20:52:26.380Z,96996.34
2023-03-27T20:54:54.474Z,96993.06
2023-03-27T20:57:22.610Z,96997.81
2023-03-27T20:59:49.901Z,97000.03
2023-03-27T21:02:19.456Z,96999.50
2023-03-27T21:04:47.757Z,97005.75
2023-03-27T21:07:16.109Z,96998.78
2023-03-27T21:09:46.148Z,97000.59
2023-03-27T21:12:13.567Z,96997.19
2023-03-27T21:14:41.091Z,97002.16
2023-03-27T21:17:12.597Z,97006.50
2023-03-27T21:19:39.908Z,96999.72
2023-03-27T21:22:07.357Z,96991.94
2023-03-27T21:24:34.624Z,96999.78
2023-03-27T21:27:02.024Z,96997.81
2023-03-27T21:29:29.288Z,97000.41
2023-03-27T21:31:56.859Z,96993.09
2023-03-27T21:34:24.536Z,96993.34
2023-03-27T21:36:51.756Z,96996.84
2023-03-27T21:39:19.344Z,97000.03
2023-03-27T21:41:46.576Z,96992.88
2023-03-27T21:44:13.856Z,96990.69
2023-03-27T21:46:41.118Z,96994.53
2023-03-27T21:49:08.502Z,96997.97
2023-03-27T21:51:35.899Z,96998.97
2023-03-27T21:54:03.448Z,96995.56
2023-03-27T21:56:30.762Z,96996.75
2023-03-27T21:58:58.020Z,96997.31
2023-03-27T22:01:26.042Z,97005.69
2023-03-27T22:03:53.669Z,97006.16
2023-03-27T22:06:21.085Z,97004.94
2023-03-27T22:08:48.327Z,97006.31
2023-03-27T22:11:15.706Z,97005.59
2023-03-27T22:13:43.491Z,97012.25
2023-03-27T22:16:14.906Z,97010.03
2023-03-27T22:18:44.055Z,97017.19
2023-03-27T22:21:22.100Z,97019.56
2023-03-27T22:23:53.303Z,97016.94
2023-03-27T22:26:24.274Z,97013.38
2023-03-27T22:28:54.586Z,97022.94
2023-03-27T22:31:22.906Z,97024.03
2023-03-27T22:33:51.253Z,97024.16
2023-03-27T22:36:19.284Z,97021.97
2023-03-27T22:38:46.560Z,97028.19
2023-03-27T22:41:15.516Z,97023.84
2023-03-27T22:43:42.950Z,97020.06
2023-03-27T22:46:14.228Z,97022.66
2023-03-27T22:48:42.190Z,97024.84
2023-03-27T22:51:11.568Z,97026.38
2023-03-27T22:53:39.368Z,97024.00
2023-03-27T22:56:07.842Z,97022.41
2023-03-27T22:58:35.201Z,97033.19
2023-03-27T23:01:05.566Z,97024.94
2023-03-27T23:03:33.395Z,97030.47
2023-03-27T23:06:00.929Z,97034.28
2023-03-27T23:08:29.180Z,97029.88
2023-03-27T23:11:02.333Z,97039.16
2023-03-27T23:13:32.361Z,97033.53
2023-03-27T23:16:00.609Z,97032.31
2023-03-27T23:18:28.096Z,97034.59
2023-03-27T23:20:58.454Z,97036.84
2023-03-27T23:23:27.728Z,97035.88
2023-03-27T23:25:57.728Z,97042.78
2023-03-27T23:28:26.503Z,97042.56
2023-03-27T23:31:03.336Z,97044.16
2023-03-27T23:33:37.305Z,97052.59
2023-03-27T23:36:10.976Z,97051.13
2023-03-27T23:38:39.203Z,97050.16
2023-03-27T23:41:09.037Z,97041.94
2023-03-27T23:43:37.364Z,97047.00
2023-03-27T23:46:08.708Z,97048.81
2023-03-27T23:48:37.526Z,97048.97
2023-03-27T23:51:06.007Z,97047.16
2023-03-27T23:53:33.724Z,97046.41
2023-03-27T23:56:01.712Z,97038.03
2023-03-27T23:58:32.514Z,97043.06
